createdAt,value
2018-09-30T00:00:34.077Z,9.48
2018-09-30T00:01:34.860Z,9.45
2018-09-30T00:02:36.082Z,9.48
2018-09-30T00:03:36.592Z,9.44
2018-09-30T00:04:37.096Z,9.42
2018-09-30T00:05:37.876Z,9.42
2018-09-30T00:06:39.218Z,9.39
2018-09-30T00:07:39.725Z,9.51
2018-09-30T00:08:41.787Z,9.47
2018-09-30T00:09:42.297Z,9.44
2018-09-30T00:10:42.525Z,9.34
2018-09-30T00:11:43.598Z,9.39
2018-09-30T00:12:44.383Z,9.45
2018-09-30T00:13:44.446Z,9.4
2018-09-30T00:14:44.950Z,9.37
2018-09-30T00:15:45.455Z,9.36
2018-09-30T00:16:46.963Z,9.36
2018-09-30T00:17:48.300Z,9.37
2018-09-30T00:18:48.527Z,9.39
2018-09-30T00:19:49.669Z,9.39
2018-09-30T00:20:50.728Z,9.36
2018-09-30T00:21:51.069Z,9.4
2018-09-30T00:22:51.574Z,9.45
2018-09-30T00:23:52.355Z,9.39
2018-09-30T00:24:52.858Z,9.34
2018-09-30T00:25:53.919Z,9.44
2018-09-30T00:26:54.721Z,9.51
2018-09-30T00:27:55.766Z,9.45
2018-09-30T00:28:55.845Z,9.49
2018-09-30T00:29:57.468Z,9.36
2018-09-30T00:30:57.981Z,9.29
2018-09-30T00:31:59.216Z,9.24
2018-09-30T00:33:00.741Z,9.21
2018-09-30T00:34:01.531Z,9.19
2018-09-30T00:35:02.876Z,9.31
2018-09-30T00:36:03.385Z,9.3
2018-09-30T00:37:03.929Z,9.33
2018-09-30T00:38:04.994Z,9.29
2018-09-30T00:39:05.504Z,9.29
2018-09-30T00:40:07.311Z,9.29
2018-09-30T00:41:07.103Z,9.31
2018-09-30T00:42:07.891Z,9.33
2018-09-30T00:43:08.680Z,9.34
2018-09-30T00:44:09.195Z,9.29
2018-09-30T00:45:10.431Z,9.26
2018-09-30T00:46:11.781Z,9.26
2018-09-30T00:47:12.884Z,9.26
2018-09-30T00:48:13.226Z,9.16
2018-09-30T00:49:14.299Z,9.12
2018-09-30T00:50:15.546Z,9.09
2018-09-30T00:51:15.618Z,9.11
2018-09-30T00:52:16.964Z,9.08
2018-09-30T00:53:18.032Z,9.08
2018-09-30T00:54:18.097Z,9.08
2018-09-30T00:55:18.608Z,9.13
2018-09-30T00:56:19.398Z,9.05
2018-09-30T00:57:20.184Z,8.99
2018-09-30T00:58:20.421Z,8.99
2018-09-30T00:59:22.339Z,8.96
2018-09-30T01:00:22.855Z,8.93
2018-09-30T01:01:24.644Z,8.82
2018-09-30T01:02:25.267Z,8.81
2018-09-30T01:03:26.066Z,8.87
2018-09-30T01:04:27.293Z,8.96
2018-09-30T01:05:28.083Z,8.87
2018-09-30T01:06:28.596Z,8.86
2018-09-30T01:07:30.670Z,8.92
2018-09-30T01:08:30.460Z,8.84
2018-09-30T01:09:31.527Z,8.84
2018-09-30T01:10:31.800Z,8.9
2018-09-30T01:11:32.871Z,8.86
2018-09-30T01:12:33.104Z,8.86
2018-09-30T01:13:34.170Z,8.86
2018-09-30T01:14:34.697Z,8.92
2018-09-30T01:15:35.804Z,8.77
2018-09-30T01:16:37.423Z,8.82
2018-09-30T01:17:38.490Z,8.79
2018-09-30T01:18:38.560Z,8.89
2018-09-30T01:19:39.628Z,8.81
2018-09-30T01:20:39.901Z,8.9
2018-09-30T01:21:41.249Z,8.93
2018-09-30T01:22:41.594Z,8.87
2018-09-30T01:23:42.660Z,8.86
2018-09-30T01:24:43.726Z,8.95
2018-09-30T01:25:44.073Z,8.93
2018-09-30T01:26:44.586Z,8.93
2018-09-30T01:27:45.204Z,8.99
2018-09-30T01:28:45.715Z,8.95
2018-09-30T01:29:47.504Z,8.99
2018-09-30T01:30:48.468Z,8.92
2018-09-30T01:31:49.535Z,9
2018-09-30T01:32:50.611Z,8.96
2018-09-30T01:33:51.240Z,9
2018-09-30T01:34:52.472Z,8.99
2018-09-30T01:35:53.980Z,9
2018-09-30T01:36:54.491Z,9.02
2018-09-30T01:37:54.836Z,9
2018-09-30T01:38:55.625Z,9.05
2018-09-30T01:39:56.694Z,9.02
2018-09-30T01:40:58.077Z,9
2018-09-30T01:41:58.865Z,9.13
2018-09-30T01:42:59.217Z,9.09
2018-09-30T01:44:00.605Z,9.12
2018-09-30T01:45:01.673Z,9.09
2018-09-30T01:46:02.020Z,9.09
2018-09-30T01:47:02.536Z,9.09
2018-09-30T01:48:03.331Z,9.11
2018-09-30T01:49:03.844Z,9.15
2018-09-30T01:50:04.915Z,8.99
2018-09-30T01:51:06.009Z,9.05
2018-09-30T01:52:06.798Z,9.02
2018-09-30T01:53:07.589Z,9.05
2018-09-30T01:54:08.378Z,9.02
2018-09-30T01:55:09.167Z,8.95
2018-09-30T01:56:09.956Z,9
2018-09-30T01:57:11.304Z,8.97
2018-09-30T01:58:12.375Z,8.93
2018-09-30T01:59:13.161Z,8.81
2018-09-30T02:00:13.958Z,8.6
2018-09-30T02:01:15.207Z,8.53
2018-09-30T02:02:16.442Z,8.46
2018-09-30T02:03:17.511Z,8.28
2018-09-30T02:04:18.580Z,8.21
2018-09-30T02:05:19.372Z,8.08
2018-09-30T02:06:21.282Z,7.98
2018-09-30T02:07:21.349Z,8.16
2018-09-30T02:08:23.414Z,8.09
2018-09-30T02:09:24.039Z,8.02
2018-09-30T02:10:24.277Z,8.02
2018-09-30T02:11:24.826Z,8.03
2018-09-30T02:12:25.612Z,8.08
2018-09-30T02:13:25.683Z,8.05
2018-09-30T02:14:26.752Z,8.16
2018-09-30T02:15:27.818Z,8.26
2018-09-30T02:16:28.329Z,8.31
2018-09-30T02:17:30.119Z,8.32
2018-09-30T02:18:30.632Z,8.34
2018-09-30T02:19:31.698Z,8.35
2018-09-30T02:20:31.489Z,8.39
2018-09-30T02:21:33.033Z,8.38
2018-09-30T02:22:33.545Z,8.36
2018-09-30T02:23:35.057Z,8.56
2018-09-30T02:24:35.574Z,8.46
2018-09-30T02:25:36.359Z,8.59
2018-09-30T02:26:37.152Z,8.52
2018-09-30T02:27:37.942Z,8.54
2018-09-30T02:28:39.015Z,8.59
2018-09-30T02:29:39.803Z,8.53
2018-09-30T02:30:40.591Z,8.54
2018-09-30T02:31:41.705Z,8.54
2018-09-30T02:32:41.775Z,8.52
2018-09-30T02:33:42.291Z,8.52
2018-09-30T02:34:42.912Z,8.52
2018-09-30T02:35:44.261Z,8.57
2018-09-30T02:36:44.612Z,8.66
2018-09-30T02:37:45.689Z,8.66
2018-09-30T02:38:47.039Z,8.64
2018-09-30T02:39:48.222Z,8.75
2018-09-30T02:40:47.737Z,8.77
2018-09-30T02:41:49.011Z,8.82
2018-09-30T02:42:50.075Z,8.79
2018-09-30T02:43:50.143Z,8.81
2018-09-30T02:44:51.211Z,8.79
2018-09-30T02:45:52.551Z,8.92
2018-09-30T02:46:52.903Z,8.79
2018-09-30T02:47:52.975Z,8.99
2018-09-30T02:48:54.038Z,8.95
2018-09-30T02:49:55.393Z,8.96
2018-09-30T02:50:56.179Z,9.02
2018-09-30T02:51:57.285Z,9.02
2018-09-30T02:52:58.680Z,9.13
2018-09-30T02:53:59.465Z,9.12
2018-09-30T02:55:00.255Z,9.08
2018-09-30T02:56:01.610Z,9.09
2018-09-30T02:57:02.802Z,8.89
2018-09-30T02:58:03.331Z,9
2018-09-30T02:59:03.896Z,9.02
2018-09-30T03:00:04.963Z,9.15
2018-09-30T03:01:06.307Z,8.96
2018-09-30T03:02:06.826Z,9
2018-09-30T03:03:08.168Z,8.99
2018-09-30T03:04:09.353Z,9.09
2018-09-30T03:05:09.427Z,9
2018-09-30T03:06:11.046Z,9
2018-09-30T03:07:11.392Z,8.97
2018-09-30T03:08:11.737Z,9.02
2018-09-30T03:09:12.361Z,9
2018-09-30T03:10:12.426Z,8.93
2018-09-30T03:11:13.492Z,8.92
2018-09-30T03:12:14.564Z,8.95
2018-09-30T03:13:16.203Z,8.9
2018-09-30T03:14:17.104Z,8.86
2018-09-30T03:15:18.179Z,8.79
2018-09-30T03:16:18.804Z,8.82
2018-09-30T03:17:19.873Z,8.81
2018-09-30T03:18:20.936Z,8.82
2018-09-30T03:19:21.733Z,8.87
2018-09-30T03:20:22.795Z,8.77
2018-09-30T03:21:23.309Z,8.82
2018-09-30T03:22:24.835Z,8.78
2018-09-30T03:23:25.903Z,8.78
2018-09-30T03:24:27.251Z,8.74
2018-09-30T03:25:27.879Z,8.79
2018-09-30T03:26:28.945Z,8.74
2018-09-30T03:27:29.865Z,8.81
2018-09-30T03:28:30.375Z,8.75
2018-09-30T03:29:31.888Z,8.79
2018-09-30T03:30:32.806Z,8.71
2018-09-30T03:31:33.429Z,8.74
2018-09-30T03:32:34.535Z,8.71
2018-09-30T03:33:36.463Z,8.64
2018-09-30T03:34:36.809Z,8.71
2018-09-30T03:35:36.988Z,8.71
2018-09-30T03:36:37.499Z,8.66
2018-09-30T03:37:38.845Z,8.68
2018-09-30T03:38:39.917Z,8.61
2018-09-30T03:39:40.962Z,8.71
2018-09-30T03:40:41.652Z,8.71
2018-09-30T03:41:43.004Z,8.63
2018-09-30T03:42:43.524Z,8.64
2018-09-30T03:43:44.150Z,8.61
2018-09-30T03:44:45.386Z,8.68
2018-09-30T03:45:46.464Z,8.69
2018-09-30T03:46:48.090Z,8.68
2018-09-30T03:47:47.897Z,8.64
2018-09-30T03:48:49.973Z,8.71
2018-09-30T03:49:50.594Z,8.72
2018-09-30T03:50:50.663Z,8.74
2018-09-30T03:51:51.452Z,8.71
2018-09-30T03:52:52.278Z,8.78
2018-09-30T03:53:53.067Z,8.72
2018-09-30T03:54:53.969Z,8.75
2018-09-30T03:55:54.756Z,8.74
2018-09-30T03:56:55.820Z,8.71
2018-09-30T03:57:57.738Z,8.74
2018-09-30T03:58:57.526Z,8.72
2018-09-30T03:59:58.637Z,8.78
2018-09-30T04:00:59.402Z,8.79
2018-09-30T04:01:59.919Z,8.78
2018-09-30T04:03:00.893Z,8.81
2018-09-30T04:04:02.241Z,8.81
2018-09-30T04:05:03.306Z,8.79
2018-09-30T04:06:04.102Z,8.89
2018-09-30T04:07:04.748Z,8.82
2018-09-30T04:08:05.544Z,8.79
2018-09-30T04:09:06.610Z,8.81
2018-09-30T04:10:08.574Z,8.77
2018-09-30T04:11:08.938Z,8.89
2018-09-30T04:12:10.565Z,8.92
2018-09-30T04:13:10.289Z,8.95
2018-09-30T04:14:11.357Z,8.9
2018-09-30T04:15:12.425Z,8.9
2018-09-30T04:16:13.772Z,8.95
2018-09-30T04:17:14.550Z,9
2018-09-30T04:18:15.048Z,9.02
2018-09-30T04:19:16.108Z,8.95
2018-09-30T04:20:17.457Z,8.96
2018-09-30T04:21:17.526Z,8.95
2018-09-30T04:22:18.314Z,8.96
2018-09-30T04:23:19.282Z,8.93
2018-09-30T04:24:19.907Z,9.02
2018-09-30T04:25:19.974Z,9.03
2018-09-30T04:26:20.318Z,9.03
2018-09-30T04:27:20.829Z,8.97
2018-09-30T04:28:22.462Z,9.05
2018-09-30T04:29:21.973Z,9.11
2018-09-30T04:30:23.318Z,9.05
2018-09-30T04:31:24.108Z,9.12
2018-09-30T04:32:25.174Z,9.09
2018-09-30T04:33:26.963Z,9.09
2018-09-30T04:34:27.475Z,9.16
2018-09-30T04:35:28.268Z,9.02
2018-09-30T04:36:29.171Z,9.05
2018-09-30T04:37:29.532Z,8.9
2018-09-30T04:38:30.046Z,8.84
2018-09-30T04:39:31.281Z,8.69
2018-09-30T04:40:31.906Z,8.59
2018-09-30T04:41:33.536Z,8.53
2018-09-30T04:42:33.604Z,8.61
2018-09-30T04:43:34.853Z,8.52
2018-09-30T04:44:35.915Z,8.45
2018-09-30T04:45:36.426Z,8.41
2018-09-30T04:46:37.495Z,8.36
2018-09-30T04:47:37.729Z,8.35
2018-09-30T04:48:39.625Z,8.34
2018-09-30T04:49:40.361Z,8.36
2018-09-30T04:50:41.172Z,8.38
2018-09-30T04:51:42.240Z,8.52
2018-09-30T04:52:42.872Z,8.56
2018-09-30T04:53:43.970Z,8.59
2018-09-30T04:54:45.035Z,8.66
2018-09-30T04:55:45.824Z,8.64
2018-09-30T04:56:46.614Z,8.79
2018-09-30T04:57:47.963Z,8.81
2018-09-30T04:58:48.198Z,8.82
2018-09-30T04:59:49.264Z,8.74
2018-09-30T05:00:50.335Z,8.82
2018-09-30T05:01:50.576Z,8.95
2018-09-30T05:02:51.371Z,8.93
2018-09-30T05:03:52.891Z,8.95
2018-09-30T05:04:53.406Z,8.99
2018-09-30T05:05:54.361Z,8.95
2018-09-30T05:06:54.436Z,8.92
2018-09-30T05:07:55.506Z,8.9
2018-09-30T05:08:56.024Z,9
2018-09-30T05:09:56.921Z,9.02
2018-09-30T05:10:57.437Z,8.99
2018-09-30T05:11:58.503Z,8.87
2018-09-30T05:12:59.018Z,9.13
2018-09-30T05:13:59.712Z,9.05
2018-09-30T05:15:01.339Z,9.02
2018-09-30T05:16:02.178Z,8.93
2018-09-30T05:17:01.784Z,9
2018-09-30T05:18:02.572Z,9.09
2018-09-30T05:19:03.084Z,9.03
2018-09-30T05:20:03.880Z,9.13
2018-09-30T05:21:04.949Z,9.11
2018-09-30T05:22:05.466Z,9.16
2018-09-30T05:23:06.814Z,9.26
2018-09-30T05:24:07.778Z,9.22
2018-09-30T05:25:08.863Z,9.24
2018-09-30T05:26:08.657Z,9.27
2018-09-30T05:27:10.006Z,9.18
2018-09-30T05:28:11.634Z,9.21
2018-09-30T05:29:12.432Z,9.21
2018-09-30T05:30:12.939Z,9.26
2018-09-30T05:31:14.842Z,9.15
2018-09-30T05:32:14.530Z,9.21
2018-09-30T05:33:15.599Z,9.29
2018-09-30T05:34:17.153Z,9.19
2018-09-30T05:35:18.225Z,9.16
2018-09-30T05:36:19.297Z,9.15
2018-09-30T05:37:20.757Z,9.18
2018-09-30T05:38:21.456Z,9.18
2018-09-30T05:39:21.973Z,9.13
2018-09-30T05:40:22.765Z,9.19
2018-09-30T05:41:23.282Z,9.13
2018-09-30T05:42:23.828Z,9.11
2018-09-30T05:43:24.682Z,9.09
2018-09-30T05:44:25.208Z,8.99
2018-09-30T05:45:26.866Z,9.03
2018-09-30T05:46:27.380Z,9.08
2018-09-30T05:47:28.173Z,9.09
2018-09-30T05:48:29.408Z,9.02
2018-09-30T05:49:31.202Z,9.08
2018-09-30T05:50:32.551Z,9.26
2018-09-30T05:51:32.792Z,9.29
2018-09-30T05:52:34.140Z,9.34
2018-09-30T05:53:34.489Z,9.36
2018-09-30T05:54:35.460Z,9.26
2018-09-30T05:55:36.250Z,9.27
2018-09-30T05:56:36.766Z,9.22
2018-09-30T05:57:39.188Z,9.29
2018-09-30T05:58:38.745Z,9.3
2018-09-30T05:59:39.539Z,9.19
2018-09-30T06:00:41.167Z,9.26
2018-09-30T06:01:41.243Z,9.27
2018-09-30T06:02:41.312Z,9.27
2018-09-30T06:03:42.381Z,9.24
2018-09-30T06:04:43.348Z,9.24
2018-09-30T06:05:43.862Z,9.27
2018-09-30T06:06:44.652Z,9.26
2018-09-30T06:07:46.007Z,9.24
2018-09-30T06:08:46.525Z,9.31
2018-09-30T06:09:47.048Z,9.22
2018-09-30T06:10:48.395Z,9.31
2018-09-30T06:11:49.466Z,9.31
2018-09-30T06:12:50.257Z,9.39
2018-09-30T06:13:51.633Z,9.4
2018-09-30T06:14:51.771Z,9.47
2018-09-30T06:15:53.670Z,9.39
2018-09-30T06:16:53.585Z,9.44
2018-09-30T06:17:54.936Z,9.44
2018-09-30T06:18:55.563Z,9.47
2018-09-30T06:19:56.368Z,9.51
2018-09-30T06:20:57.436Z,9.55
2018-09-30T06:21:58.511Z,9.62
2018-09-30T06:22:59.306Z,9.62
2018-09-30T06:24:00.465Z,9.63
2018-09-30T06:25:01.154Z,9.67
2018-09-30T06:26:02.233Z,9.66
2018-09-30T06:27:03.078Z,9.64
2018-09-30T06:28:03.151Z,9.67
2018-09-30T06:29:04.502Z,9.7
2018-09-30T06:30:05.125Z,9.69
2018-09-30T06:31:05.362Z,9.59
2018-09-30T06:32:06.776Z,9.64
2018-09-30T06:33:06.881Z,9.7
2018-09-30T06:34:08.236Z,9.74
2018-09-30T06:35:09.212Z,9.76
2018-09-30T06:36:10.117Z,9.82
2018-09-30T06:37:11.739Z,9.85
2018-09-30T06:38:12.323Z,9.82
2018-09-30T06:39:13.669Z,9.95
2018-09-30T06:40:14.806Z,9.94
2018-09-30T06:41:14.622Z,9.99
2018-09-30T06:42:15.531Z,10.07
2018-09-30T06:43:15.619Z,10.12
2018-09-30T06:44:16.693Z,10.23
2018-09-30T06:45:17.961Z,10.57
2018-09-30T06:46:18.164Z,10.61
2018-09-30T06:47:18.961Z,10.89
2018-09-30T06:48:19.872Z,10.97
2018-09-30T06:49:20.389Z,11.15
2018-09-30T06:50:22.022Z,11.22
2018-09-30T06:51:22.821Z,11.37
2018-09-30T06:52:23.623Z,11.53
2018-09-30T06:53:25.153Z,11.6
2018-09-30T06:54:25.953Z,11.81
2018-09-30T06:55:26.646Z,12.02
2018-09-30T06:56:28.002Z,12.3
2018-09-30T06:57:28.800Z,12.36
2018-09-30T06:58:30.596Z,12.37
2018-09-30T06:59:32.222Z,12.37
2018-09-30T07:00:33.017Z,12.5
2018-09-30T07:01:34.369Z,12.72
2018-09-30T07:02:35.170Z,12.78
2018-09-30T07:03:35.967Z,12.87
2018-09-30T07:04:36.764Z,12.91
2018-09-30T07:05:38.026Z,12.98
2018-09-30T07:06:39.656Z,13.03
2018-09-30T07:07:40.018Z,13.2
2018-09-30T07:08:41.376Z,13.28
2018-09-30T07:09:41.894Z,13.52
2018-09-30T07:10:43.097Z,13.79
2018-09-30T07:11:43.817Z,14.04
2018-09-30T07:12:44.067Z,14.2
2018-09-30T07:13:45.143Z,14.33
2018-09-30T07:14:45.946Z,14.38
2018-09-30T07:15:46.921Z,14.53
2018-09-30T07:16:48.971Z,14.7
2018-09-30T07:17:49.265Z,14.97
2018-09-30T07:18:50.070Z,15.04
2018-09-30T07:19:50.870Z,15.35
2018-09-30T07:20:52.115Z,15.62
2018-09-30T07:21:53.200Z,15.83
2018-09-30T07:22:53.279Z,15.72
2018-09-30T07:23:54.913Z,15.78
2018-09-30T07:24:55.434Z,15.6
2018-09-30T07:25:56.474Z,15.51
2018-09-30T07:26:57.847Z,15.37
2018-09-30T07:27:59.204Z,15.23
2018-09-30T07:28:59.006Z,15.17
2018-09-30T07:30:00.527Z,15.1
2018-09-30T07:31:01.052Z,14.99
2018-09-30T07:32:02.131Z,14.97
2018-09-30T07:33:02.652Z,14.74
2018-09-30T07:34:03.454Z,14.77
2018-09-30T07:35:04.253Z,14.77
2018-09-30T07:36:06.063Z,14.59
2018-09-30T07:37:06.861Z,14.61
2018-09-30T07:38:07.661Z,14.62
2018-09-30T07:39:08.180Z,14.59
2018-09-30T07:40:09.256Z,14.77
2018-09-30T07:41:09.777Z,14.78
2018-09-30T07:42:10.297Z,14.81
2018-09-30T07:43:11.098Z,14.7
2018-09-30T07:44:11.617Z,14.67
2018-09-30T07:45:12.696Z,14.67
2018-09-30T07:46:13.226Z,14.67
2018-09-30T07:47:13.581Z,14.7
2018-09-30T07:48:14.378Z,14.78
2018-09-30T07:49:15.180Z,14.67
2018-09-30T07:50:16.534Z,14.37
2018-09-30T07:51:17.614Z,14.43
2018-09-30T07:52:18.414Z,14.15
2018-09-30T07:53:19.771Z,14.03
2018-09-30T07:54:20.292Z,13.87
2018-09-30T07:55:20.811Z,14.01
2018-09-30T07:56:22.061Z,14.01
2018-09-30T07:57:23.581Z,14.12
2018-09-30T07:58:24.944Z,14.19
2018-09-30T07:59:25.293Z,14.28
2018-09-30T08:00:26.094Z,14.31
2018-09-30T08:01:26.618Z,14.37
2018-09-30T08:02:27.252Z,14.37
2018-09-30T08:03:28.612Z,14.11
2018-09-30T08:04:28.687Z,14.2
2018-09-30T08:05:30.761Z,14.15
2018-09-30T08:06:32.551Z,14.13
2018-09-30T08:07:31.535Z,14.26
2018-09-30T08:08:32.887Z,14.36
2018-09-30T08:09:32.410Z,14.25
2018-09-30T08:10:33.211Z,14.2
2018-09-30T08:11:33.286Z,14.25
2018-09-30T08:12:34.644Z,14.43
2018-09-30T08:13:35.447Z,14.37
2018-09-30T08:14:36.244Z,14.38
2018-09-30T08:15:37.323Z,14.44
2018-09-30T08:16:39.133Z,14.37
2018-09-30T08:17:39.281Z,14.45
2018-09-30T08:18:39.527Z,14.38
2018-09-30T08:19:41.048Z,14.16
2018-09-30T08:20:42.956Z,14.01
2018-09-30T08:21:42.861Z,14.04
2018-09-30T08:22:44.377Z,14.05
2018-09-30T08:23:45.176Z,14.04
2018-09-30T08:24:45.701Z,14.13
2018-09-30T08:25:46.828Z,14.31
2018-09-30T08:26:47.754Z,14.3
2018-09-30T08:27:48.554Z,14.3
2018-09-30T08:28:49.350Z,14.4
2018-09-30T08:29:50.381Z,14.43
2018-09-30T08:30:52.030Z,14.58
2018-09-30T08:31:52.310Z,14.58
2018-09-30T08:32:53.107Z,14.67
2018-09-30T08:33:54.196Z,14.74
2018-09-30T08:34:55.549Z,14.77
2018-09-30T08:35:56.625Z,14.74
2018-09-30T08:36:56.877Z,14.68
2018-09-30T08:37:58.396Z,14.68
2018-09-30T08:38:58.921Z,14.63
2018-09-30T08:40:00.164Z,14.66
2018-09-30T08:41:00.597Z,14.66
2018-09-30T08:42:01.674Z,14.68
2018-09-30T08:43:01.916Z,14.62
2018-09-30T08:44:03.036Z,14.7
2018-09-30T08:45:03.466Z,14.86
2018-09-30T08:46:04.990Z,14.93
2018-09-30T08:47:06.338Z,15
2018-09-30T08:48:07.390Z,15.18
2018-09-30T08:49:08.397Z,15.23
2018-09-30T08:50:09.246Z,15.3
2018-09-30T08:51:10.048Z,15.43
2018-09-30T08:52:10.570Z,15.43
2018-09-30T08:53:11.089Z,15.6
2018-09-30T08:54:11.613Z,15.39
2018-09-30T08:55:12.700Z,15.45
2018-09-30T08:56:15.327Z,15.43
2018-09-30T08:57:15.011Z,15.57
2018-09-30T08:58:16.252Z,15.55
2018-09-30T08:59:17.610Z,15.7
2018-09-30T09:00:17.918Z,15.72
2018-09-30T09:01:18.772Z,15.81
2018-09-30T09:02:19.294Z,15.9
2018-09-30T09:03:20.646Z,15.96
2018-09-30T09:04:21.167Z,16.05
2018-09-30T09:05:22.692Z,16.06
2018-09-30T09:06:23.781Z,16.09
2018-09-30T09:07:24.658Z,15.98
2018-09-30T09:08:25.210Z,16.06
2018-09-30T09:09:26.013Z,16.1
2018-09-30T09:10:27.088Z,16.17
2018-09-30T09:11:28.611Z,16.02
2018-09-30T09:12:29.410Z,16.09
2018-09-30T09:13:30.493Z,16.06
2018-09-30T09:14:30.338Z,16.06
2018-09-30T09:15:33.078Z,16.18
2018-09-30T09:16:32.638Z,16.29
2018-09-30T09:17:33.759Z,16.24
2018-09-30T09:18:34.839Z,16.13
2018-09-30T09:19:35.083Z,16.28
2018-09-30T09:20:35.881Z,16.31
2018-09-30T09:21:36.678Z,16.39
2018-09-30T09:22:37.121Z,16.46
2018-09-30T09:23:38.693Z,16.37
2018-09-30T09:24:38.829Z,16.28
2018-09-30T09:25:44.116Z,16.29
2018-09-30T09:25:52.193Z,16.29
2018-09-30T09:26:53.442Z,16.34
2018-09-30T09:27:53.549Z,16.17
2018-09-30T09:28:54.640Z,16.26
2018-09-30T09:29:55.716Z,16.37
2018-09-30T09:30:56.233Z,16.58
2018-09-30T09:31:57.761Z,16.62
2018-09-30T09:32:59.456Z,16.54
2018-09-30T09:34:00.373Z,16.59
2018-09-30T09:35:01.986Z,16.65
2018-09-30T09:36:02.307Z,16.76
2018-09-30T09:37:02.590Z,16.8
2018-09-30T09:38:04.110Z,17.01
2018-09-30T09:39:05.186Z,17.02
2018-09-30T09:40:05.988Z,17.13
2018-09-30T09:41:07.068Z,17.22
2018-09-30T09:42:07.872Z,17.39
2018-09-30T09:43:08.670Z,17.53
2018-09-30T09:44:09.758Z,17.47
2018-09-30T09:45:15.150Z,17.41
2018-09-30T09:45:26.264Z,17.37
2018-09-30T09:46:24.326Z,17.39
2018-09-30T09:47:24.126Z,17.2
2018-09-30T09:48:25.759Z,17.31
2018-09-30T09:49:26.283Z,17.41
2018-09-30T09:50:27.805Z,17.39
2018-09-30T09:51:28.611Z,17.66
2018-09-30T09:52:29.173Z,17.95
2018-09-30T09:53:29.815Z,18.55
2018-09-30T09:54:30.895Z,19.11
2018-09-30T09:55:31.995Z,19.77
2018-09-30T09:56:32.980Z,19.99
2018-09-30T09:57:33.808Z,20.18
2018-09-30T09:58:34.845Z,20.58
2018-09-30T09:59:35.205Z,21.03
2018-09-30T10:00:36.012Z,21.5
2018-09-30T10:01:36.538Z,21.78
2018-09-30T10:02:37.343Z,22.08
2018-09-30T10:03:38.152Z,22.52
2018-09-30T10:04:39.404Z,22.77
2018-09-30T10:05:40.770Z,22.83
2018-09-30T10:06:42.316Z,22.96
2018-09-30T10:07:43.419Z,23.08
2018-09-30T10:08:44.505Z,22.92
2018-09-30T10:09:48.257Z,22.96
2018-09-30T10:10:47.368Z,23.21
2018-09-30T10:11:47.901Z,23.32
2018-09-30T10:12:48.437Z,23.47
2018-09-30T10:13:49.244Z,23.67
2018-09-30T10:14:50.054Z,23.81
2018-09-30T10:15:51.307Z,23.99
2018-09-30T10:16:51.849Z,23.88
2018-09-30T10:17:52.660Z,23.55
2018-09-30T10:18:53.749Z,23.71
2018-09-30T10:19:54.563Z,23.77
2018-09-30T10:20:54.816Z,23.25
2018-09-30T10:21:55.916Z,22.8
2018-09-30T10:22:56.448Z,22.81
2018-09-30T10:23:57.260Z,22.92
2018-09-30T10:24:58.069Z,22.62
2018-09-30T10:25:58.876Z,22.58
2018-09-30T10:26:59.425Z,22.62
2018-09-30T10:27:59.804Z,22.77
2018-09-30T10:29:00.621Z,22.81
2018-09-30T10:30:03.762Z,22.89
2018-09-30T10:31:04.135Z,23.26
2018-09-30T10:32:04.216Z,23.44
2018-09-30T10:33:04.747Z,23.69
2018-09-30T10:34:06.281Z,23.81
2018-09-30T10:35:07.094Z,23.49
2018-09-30T10:36:07.462Z,23.58
2018-09-30T10:37:08.594Z,23.62
2018-09-30T10:38:09.963Z,23.91
2018-09-30T10:39:12.874Z,24.06
2018-09-30T10:40:10.785Z,23.99
2018-09-30T10:41:11.598Z,23.91
2018-09-30T10:42:12.414Z,24.06
2018-09-30T10:43:13.230Z,24.21
2018-09-30T10:44:14.594Z,24.16
2018-09-30T10:45:15.682Z,24.13
2018-09-30T10:46:15.942Z,24.1
2018-09-30T10:47:17.628Z,24.09
2018-09-30T10:48:18.987Z,23.88
2018-09-30T10:49:19.778Z,23.84
2018-09-30T10:50:20.031Z,23.73
2018-09-30T10:51:21.122Z,23.28
2018-09-30T10:52:21.930Z,23.28
2018-09-30T10:53:22.459Z,23.07
2018-09-30T10:54:22.717Z,22.8
2018-09-30T10:55:24.917Z,22.83
2018-09-30T10:56:24.914Z,22.84
2018-09-30T10:57:25.194Z,22.8
2018-09-30T10:58:26.856Z,22.67
2018-09-30T10:59:27.944Z,22.62
2018-09-30T11:00:28.196Z,22.61
2018-09-30T11:01:29.002Z,22.77
2018-09-30T11:02:29.261Z,22.74
2018-09-30T11:03:30.505Z,22.86
2018-09-30T11:04:31.411Z,22.84
2018-09-30T11:05:31.503Z,22.76
2018-09-30T11:06:32.754Z,22.74
2018-09-30T11:07:33.313Z,22.8
2018-09-30T11:08:33.844Z,22.77
2018-09-30T11:09:35.964Z,22.95
2018-09-30T11:10:35.567Z,22.81
2018-09-30T11:11:35.650Z,22.8
2018-09-30T11:12:36.177Z,22.88
2018-09-30T11:13:36.707Z,22.95
2018-09-30T11:14:37.513Z,22.99
2018-09-30T11:15:38.324Z,22.96
2018-09-30T11:16:38.575Z,22.93
2018-09-30T11:17:39.926Z,22.95
2018-09-30T11:18:40.968Z,23.07
2018-09-30T11:19:41.798Z,23.11
2018-09-30T11:20:42.053Z,23.16
2018-09-30T11:21:42.581Z,23.11
2018-09-30T11:22:44.110Z,23.14
2018-09-30T11:23:44.915Z,23.17
2018-09-30T11:24:46.004Z,23.1
2018-09-30T11:25:46.531Z,23.11
2018-09-30T11:26:48.612Z,23.18
2018-09-30T11:27:48.320Z,23.21
2018-09-30T11:28:48.851Z,23.17
2018-09-30T11:29:49.661Z,23.21
2018-09-30T11:30:50.469Z,23.2
2018-09-30T11:31:51.938Z,23.06
2018-09-30T11:32:51.320Z,22.91
2018-09-30T11:33:51.568Z,22.93
2018-09-30T11:34:52.097Z,22.91
2018-09-30T11:35:53.627Z,22.96
2018-09-30T11:36:54.432Z,22.89
2018-09-30T11:37:55.691Z,22.93
2018-09-30T11:38:57.214Z,22.95
2018-09-30T11:39:58.019Z,22.95
2018-09-30T11:40:59.107Z,22.78
2018-09-30T11:42:00.472Z,22.84
2018-09-30T11:43:00.886Z,22.77
2018-09-30T11:44:01.973Z,22.71
2018-09-30T11:45:02.615Z,22.67
2018-09-30T11:46:03.423Z,22.49
2018-09-30T11:47:04.792Z,22.16
2018-09-30T11:48:06.160Z,22.08
2018-09-30T11:49:05.964Z,22.04
2018-09-30T11:50:06.774Z,22.12
2018-09-30T11:51:08.416Z,22.1
2018-09-30T11:52:08.500Z,21.99
2018-09-30T11:53:09.307Z,21.81
2018-09-30T11:54:10.952Z,21.66
2018-09-30T11:55:11.753Z,21.53
2018-09-30T11:56:12.281Z,21.59
2018-09-30T11:57:12.918Z,21.72
2018-09-30T11:58:14.454Z,21.51
2018-09-30T11:59:14.705Z,21.59
2018-09-30T12:00:15.511Z,21.72
2018-09-30T12:01:17.122Z,21.85
2018-09-30T12:02:18.275Z,21.85
2018-09-30T12:03:18.192Z,22.03
2018-09-30T12:04:18.719Z,22.25
2018-09-30T12:05:20.082Z,22.37
2018-09-30T12:06:20.611Z,22.37
2018-09-30T12:07:21.429Z,22.3
2018-09-30T12:08:21.968Z,22.31
2018-09-30T12:09:22.785Z,22.41
2018-09-30T12:10:23.592Z,22.51
2018-09-30T12:11:24.122Z,22.51
2018-09-30T12:12:25.480Z,22.43
2018-09-30T12:13:25.292Z,22.33
2018-09-30T12:14:25.657Z,22.4
2018-09-30T12:15:27.300Z,22.33
2018-09-30T12:16:27.938Z,22.51
2018-09-30T12:17:29.026Z,22.44
2018-09-30T12:18:29.286Z,22.76
2018-09-30T12:19:30.748Z,22.76
2018-09-30T12:20:31.282Z,22.74
2018-09-30T12:21:33.098Z,22.83
2018-09-30T12:22:33.735Z,22.95
2018-09-30T12:23:34.821Z,23.06
2018-09-30T12:24:35.353Z,23.14
2018-09-30T12:25:37.196Z,23.08
2018-09-30T12:26:37.882Z,22.91
2018-09-30T12:27:38.415Z,22.95
2018-09-30T12:28:39.683Z,22.83
2018-09-30T12:29:41.078Z,22.99
2018-09-30T12:30:42.442Z,22.99
2018-09-30T12:31:43.248Z,23.08
2018-09-30T12:32:44.622Z,23.23
2018-09-30T12:33:45.268Z,23.34
2018-09-30T12:34:45.072Z,23.34
2018-09-30T12:35:45.606Z,23.45
2018-09-30T12:36:46.414Z,23.36
2018-09-30T12:37:47.777Z,23.52
2018-09-30T12:38:49.367Z,23.44
2018-09-30T12:39:50.456Z,23.36
2018-09-30T12:40:50.548Z,23.29
2018-09-30T12:41:51.359Z,23.25
2018-09-30T12:42:52.025Z,23.42
2018-09-30T12:43:52.829Z,23.44
2018-09-30T12:44:53.639Z,23.47
2018-09-30T12:45:55.005Z,23.62
2018-09-30T12:46:55.539Z,23.67
2018-09-30T12:47:56.788Z,23.73
2018-09-30T12:48:58.604Z,23.85
2018-09-30T12:49:59.136Z,23.99
2018-09-30T12:51:00.777Z,24.18
2018-09-30T12:52:00.592Z,24.34
2018-09-30T12:53:01.676Z,24.47
2018-09-30T12:54:02.207Z,24.26
2018-09-30T12:55:03.462Z,24.26
2018-09-30T12:56:04.273Z,24.22
2018-09-30T12:57:05.082Z,24
2018-09-30T12:58:05.292Z,24.06
2018-09-30T12:59:05.928Z,23.89
2018-09-30T13:00:07.013Z,23.84
2018-09-30T13:01:07.821Z,23.7
2018-09-30T13:02:09.354Z,23.74
2018-09-30T13:03:09.883Z,23.64
2018-09-30T13:04:10.691Z,23.44
2018-09-30T13:05:12.055Z,23.45
2018-09-30T13:06:11.867Z,23.42
2018-09-30T13:07:12.961Z,23.34
2018-09-30T13:08:14.047Z,23.33
2018-09-30T13:09:14.754Z,23.36
2018-09-30T13:10:15.839Z,23.44
2018-09-30T13:11:16.376Z,23.42
2018-09-30T13:12:17.472Z,23.58
2018-09-30T13:13:17.728Z,23.51
2018-09-30T13:14:19.095Z,23.45
2018-09-30T13:15:19.622Z,23.56
2018-09-30T13:16:20.992Z,23.7
2018-09-30T13:17:21.247Z,23.64
2018-09-30T13:18:22.332Z,23.58